sensor_id;sensor_type;location;lat;lon;timestamp;P1;durP1;ratioP1;P2;durP2;ratioP2
71104;SDS011;58760;48.716;8.962;2022-08-19T00:01:43;23.60;;;14.38;;
71104;SDS011;58760;48.716;8.962;2022-08-19T00:04:11;24.25;;;14.48;;
71104;SDS011;58760;48.716;8.962;2022-08-19T00:06:38;20.92;;;14.38;;
71104;SDS011;58760;48.716;8.962;2022-08-19T00:09:06;19.80;;;14.23;;
71104;SDS011;58760;48.716;8.962;2022-08-19T00:11:33;20.38;;;14.48;;
71104;SDS011;58760;48.716;8.962;2022-08-19T00:14:01;21.70;;;14.70;;
71104;SDS011;58760;48.716;8.962;2022-08-19T00:16:26;20.25;;;14.55;;
71104;SDS011;58760;48.716;8.962;2022-08-19T00:18:52;20.67;;;14.75;;
71104;SDS011;58760;48.716;8.962;2022-08-19T00:21:21;21.60;;;15.30;;
71104;SDS011;58760;48.716;8.962;2022-08-19T00:23:52;22.08;;;14.90;;
71104;SDS011;58760;48.716;8.962;2022-08-19T00:26:18;25.10;;;15.77;;
71104;SDS011;58760;48.716;8.962;2022-08-19T00:28:44;22.10;;;15.35;;
71104;SDS011;58760;48.716;8.962;2022-08-19T00:31:09;24.00;;;16.08;;
71104;SDS011;58760;48.716;8.962;2022-08-19T00:33:35;20.92;;;15.32;;
71104;SDS011;58760;48.716;8.962;2022-08-19T00:36:03;25.25;;;15.65;;
71104;SDS011;58760;48.716;8.962;2022-08-19T00:38:31;20.10;;;15.52;;
71104;SDS011;58760;48.716;8.962;2022-08-19T00:40:57;23.85;;;15.93;;
71104;SDS011;58760;48.716;8.962;2022-08-19T00:43:24;23.00;;;15.38;;
71104;SDS011;58760;48.716;8.962;2022-08-19T00:45:51;22.10;;;14.25;;
71104;SDS011;58760;48.716;8.962;2022-08-19T00:48:17;23.30;;;15.88;;
71104;SDS011;58760;48.716;8.962;2022-08-19T00:50:43;22.27;;;14.77;;
71104;SDS011;58760;48.716;8.962;2022-08-19T00:53:10;22.33;;;14.30;;
71104;SDS011;58760;48.716;8.962;2022-08-19T00:55:39;23.85;;;15.27;;
71104;SDS011;58760;48.716;8.962;2022-08-19T00:58:08;23.27;;;16.88;;
71104;SDS011;58760;48.716;8.962;2022-08-19T01:00:36;23.48;;;15.90;;
71104;SDS011;58760;48.716;8.962;2022-08-19T01:03:03;24.15;;;16.60;;
71104;SDS011;58760;48.716;8.962;2022-08-19T01:05:34;22.38;;;15.80;;
71104;SDS011;58760;48.716;8.962;2022-08-19T01:08:00;23.95;;;16.45;;
71104;SDS011;58760;48.716;8.962;2022-08-19T01:10:29;23.52;;;15.45;;
71104;SDS011;58760;48.716;8.962;2022-08-19T01:12:58;24.45;;;16.92;;
71104;SDS011;58760;48.716;8.962;2022-08-19T01:15:29;23.25;;;14.77;;
71104;SDS011;58760;48.716;8.962;2022-08-19T01:17:58;23.00;;;16.20;;
71104;SDS011;58760;48.716;8.962;2022-08-19T01:20:26;22.60;;;16.33;;
71104;SDS011;58760;48.716;8.962;2022-08-19T01:22:53;25.70;;;16.05;;
71104;SDS011;58760;48.716;8.962;2022-08-19T01:25:22;24.45;;;16.63;;
71104;SDS011;58760;48.716;8.962;2022-08-19T01:27:53;24.33;;;17.35;;
71104;SDS011;58760;48.716;8.962;2022-08-19T01:30:23;26.00;;;17.55;;
71104;SDS011;58760;48.716;8.962;2022-08-19T01:32:51;23.20;;;17.95;;
71104;SDS011;58760;48.716;8.962;2022-08-19T01:35:17;25.63;;;16.55;;
71104;SDS011;58760;48.716;8.962;2022-08-19T01:37:44;26.15;;;18.10;;
71104;SDS011;58760;48.716;8.962;2022-08-19T01:40:10;21.48;;;16.65;;
71104;SDS011;58760;48.716;8.962;2022-08-19T01:42:36;21.75;;;15.48;;
71104;SDS011;58760;48.716;8.962;2022-08-19T01:45:03;22.75;;;16.10;;
71104;SDS011;58760;48.716;8.962;2022-08-19T01:47:29;22.25;;;15.82;;
71104;SDS011;58760;48.716;8.962;2022-08-19T01:49:54;23.42;;;17.08;;
71104;SDS011;58760;48.716;8.962;2022-08-19T01:52:20;25.55;;;18.15;;
71104;SDS011;58760;48.716;8.962;2022-08-19T01:54:45;24.90;;;17.15;;
71104;SDS011;58760;48.716;8.962;2022-08-19T01:57:12;28.13;;;19.00;;
71104;SDS011;58760;48.716;8.962;2022-08-19T01:59:39;23.63;;;17.08;;
71104;SDS011;58760;48.716;8.962;2022-08-19T02:02:06;25.73;;;17.77;;
71104;SDS011;58760;48.716;8.962;2022-08-19T02:04:34;27.00;;;18.77;;
71104;SDS011;58760;48.716;8.962;2022-08-19T02:07:00;28.20;;;19.15;;
71104;SDS011;58760;48.716;8.962;2022-08-19T02:09:25;30.17;;;18.42;;
71104;SDS011;58760;48.716;8.962;2022-08-19T02:11:51;26.30;;;19.42;;
71104;SDS011;58760;48.716;8.962;2022-08-19T02:14:16;27.95;;;20.23;;
71104;SDS011;58760;48.716;8.962;2022-08-19T02:16:42;24.77;;;18.30;;
71104;SDS011;58760;48.716;8.962;2022-08-19T02:19:07;24.05;;;18.45;;
71104;SDS011;58760;48.716;8.962;2022-08-19T02:21:33;24.05;;;18.42;;
71104;SDS011;58760;48.716;8.962;2022-08-19T02:26:24;28.40;;;19.00;;
71104;SDS011;58760;48.716;8.962;2022-08-19T02:28:51;24.02;;;18.50;;
71104;SDS011;58760;48.716;8.962;2022-08-19T02:31:19;27.40;;;19.90;;
71104;SDS011;58760;48.716;8.962;2022-08-19T02:33:46;30.63;;;19.35;;
71104;SDS011;58760;48.716;8.962;2022-08-19T02:36:12;27.75;;;19.65;;
71104;SDS011;58760;48.716;8.962;2022-08-19T02:38:39;27.30;;;20.42;;
71104;SDS011;58760;48.716;8.962;2022-08-19T02:41:07;29.48;;;19.83;;
71104;SDS011;58760;48.716;8.962;2022-08-19T02:43:36;26.27;;;19.85;;
71104;SDS011;58760;48.716;8.962;2022-08-19T02:46:02;28.50;;;20.48;;
71104;SDS011;58760;48.716;8.962;2022-08-19T02:48:36;27.58;;;19.38;;
71104;SDS011;58760;48.716;8.962;2022-08-19T02:51:02;26.38;;;20.65;;
71104;SDS011;58760;48.716;8.962;2022-08-19T02:53:27;29.17;;;20.05;;
71104;SDS011;58760;48.716;8.962;2022-08-19T02:55:53;32.65;;;18.25;;
71104;SDS011;58760;48.716;8.962;2022-08-19T02:58:19;30.23;;;20.35;;
71104;SDS011;58760;48.716;8.962;2022-08-19T03:00:47;25.58;;;19.98;;
71104;SDS011;58760;48.716;8.962;2022-08-19T03:03:16;31.83;;;20.08;;
71104;SDS011;58760;48.716;8.962;2022-08-19T03:05:42;30.27;;;20.92;;
71104;SDS011;58760;48.716;8.962;2022-08-19T03:08:08;30.35;;;21.35;;
71104;SDS011;58760;48.716;8.962;2022-08-19T03:10:41;31.27;;;21.58;;
71104;SDS011;58760;48.716;8.962;2022-08-19T03:13:14;28.95;;;22.13;;
71104;SDS011;58760;48.716;8.962;2022-08-19T03:15:45;30.40;;;21.92;;
71104;SDS011;58760;48.716;8.962;2022-08-19T03:18:13;32.58;;;20.80;;
71104;SDS011;58760;48.716;8.962;2022-08-19T03:20:46;32.15;;;21.52;;
71104;SDS011;58760;48.716;8.962;2022-08-19T03:23:13;34.95;;;22.55;;
71104;SDS011;58760;48.716;8.962;2022-08-19T03:25:40;32.15;;;23.75;;
71104;SDS011;58760;48.716;8.962;2022-08-19T03:28:13;32.78;;;23.70;;
71104;SDS011;58760;48.716;8.962;2022-08-19T03:30:40;30.95;;;19.95;;
71104;SDS011;58760;48.716;8.962;2022-08-19T03:33:07;32.33;;;24.13;;
71104;SDS011;58760;48.716;8.962;2022-08-19T03:35:34;31.77;;;23.77;;
71104;SDS011;58760;48.716;8.962;2022-08-19T03:38:02;30.50;;;23.17;;
71104;SDS011;58760;48.716;8.962;2022-08-19T03:40:31;34.63;;;22.92;;
71104;SDS011;58760;48.716;8.962;2022-08-19T03:42:59;31.55;;;22.73;;
71104;SDS011;58760;48.716;8.962;2022-08-19T03:45:25;29.90;;;22.00;;
71104;SDS011;58760;48.716;8.962;2022-08-19T03:47:51;32.90;;;23.17;;
71104;SDS011;58760;48.716;8.962;2022-08-19T03:50:16;32.70;;;24.05;;
71104;SDS011;58760;48.716;8.962;2022-08-19T03:52:42;29.23;;;22.15;;
71104;SDS011;58760;48.716;8.962;2022-08-19T03:55:13;31.95;;;23.00;;
71104;SDS011;58760;48.716;8.962;2022-08-19T03:57:38;33.08;;;22.98;;
71104;SDS011;58760;48.716;8.962;2022-08-19T04:00:04;33.03;;;22.65;;
71104;SDS011;58760;48.716;8.962;2022-08-19T04:02:32;32.33;;;22.30;;
71104;SDS011;58760;48.716;8.962;2022-08-19T04:04:57;29.90;;;22.38;;
71104;SDS011;58760;48.716;8.962;2022-08-19T04:07:23;33.25;;;22.67;;
71104;SDS011;58760;48.716;8.962;2022-08-19T04:09:48;28.60;;;21.55;;
71104;SDS011;58760;48.716;8.962;2022-08-19T04:12:14;31.33;;;23.38;;
71104;SDS011;58760;48.716;8.962;2022-08-19T04:14:39;32.75;;;22.55;;
71104;SDS011;58760;48.716;8.962;2022-08-19T04:17:05;35.38;;;22.30;;
71104;SDS011;58760;48.716;8.962;2022-08-19T04:19:31;33.25;;;21.25;;
71104;SDS011;58760;48.716;8.962;2022-08-19T04:21:57;33.40;;;22.45;;
71104;SDS011;58760;48.716;8.962;2022-08-19T04:24:23;31.15;;;21.92;;
71104;SDS011;58760;48.716;8.962;2022-08-19T04:26:49;31.38;;;21.73;;
71104;SDS011;58760;48.716;8.962;2022-08-19T04:29:17;34.30;;;23.55;;
71104;SDS011;58760;48.716;8.962;2022-08-19T04:31:50;33.20;;;22.77;;
71104;SDS011;58760;48.716;8.962;2022-08-19T04:34:19;34.15;;;24.20;;
71104;SDS011;58760;48.716;8.962;2022-08-19T04:36:49;37.55;;;24.45;;
71104;SDS011;58760;48.716;8.962;2022-08-19T04:39:20;37.00;;;24.50;;
71104;SDS011;58760;48.716;8.962;2022-08-19T04:41:49;36.30;;;24.88;;
71104;SDS011;58760;48.716;8.962;2022-08-19T04:44:33;32.90;;;22.90;;
71104;SDS011;58760;48.716;8.962;2022-08-19T04:47:00;36.47;;;23.23;;
71104;SDS011;58760;48.716;8.962;2022-08-19T04:49:26;36.38;;;23.85;;
71104;SDS011;58760;48.716;8.962;2022-08-19T04:51:52;35.92;;;25.05;;
71104;SDS011;58760;48.716;8.962;2022-08-19T04:54:19;31.45;;;23.40;;
71104;SDS011;58760;48.716;8.962;2022-08-19T04:56:48;36.65;;;25.15;;
71104;SDS011;58760;48.716;8.962;2022-08-19T04:59:15;34.05;;;23.95;;
71104;SDS011;58760;48.716;8.962;2022-08-19T05:01:42;31.90;;;23.20;;
71104;SDS011;58760;48.716;8.962;2022-08-19T05:04:07;35.35;;;24.98;;
71104;SDS011;58760;48.716;8.962;2022-08-19T05:06:33;32.03;;;23.90;;
71104;SDS011;58760;48.716;8.962;2022-08-19T05:09:00;30.85;;;23.50;;
71104;SDS011;58760;48.716;8.962;2022-08-19T05:11:29;34.45;;;24.38;;
71104;SDS011;58760;48.716;8.962;2022-08-19T05:13:57;31.63;;;23.08;;
71104;SDS011;58760;48.716;8.962;2022-08-19T05:16:24;38.28;;;24.42;;
71104;SDS011;58760;48.716;8.962;2022-08-19T05:18:50;41.67;;;24.25;;
71104;SDS011;58760;48.716;8.962;2022-08-19T05:21:35;28.15;;;22.33;;
71104;SDS011;58760;48.716;8.962;2022-08-19T05:24:19;29.95;;;23.70;;
71104;SDS011;58760;48.716;8.962;2022-08-19T05:26:47;29.30;;;22.67;;
71104;SDS011;58760;48.716;8.962;2022-08-19T05:29:14;35.42;;;24.40;;
71104;SDS011;58760;48.716;8.962;2022-08-19T05:31:42;32.40;;;23.15;;
71104;SDS011;58760;48.716;8.962;2022-08-19T05:34:07;31.98;;;23.27;;
71104;SDS011;58760;48.716;8.962;2022-08-19T05:36:35;38.00;;;25.38;;
71104;SDS011;58760;48.716;8.962;2022-08-19T05:39:08;32.53;;;24.98;;
71104;SDS011;58760;48.716;8.962;2022-08-19T05:41:35;32.00;;;23.90;;
71104;SDS011;58760;48.716;8.962;2022-08-19T05:44:05;32.22;;;24.08;;
71104;SDS011;58760;48.716;8.962;2022-08-19T05:46:34;32.58;;;23.73;;
71104;SDS011;58760;48.716;8.962;2022-08-19T05:49:00;34.33;;;24.83;;
71104;SDS011;58760;48.716;8.962;2022-08-19T05:51:26;35.25;;;25.50;;
71104;SDS011;58760;48.716;8.962;2022-08-19T05:53:51;31.75;;;22.23;;
71104;SDS011;58760;48.716;8.962;2022-08-19T05:56:17;30.60;;;23.23;;
71104;SDS011;58760;48.716;8.962;2022-08-19T05:58:43;33.25;;;23.00;;
71104;SDS011;58760;48.716;8.962;2022-08-19T06:01:14;33.42;;;23.17;;
71104;SDS011;58760;48.716;8.962;2022-08-19T06:03:41;31.27;;;23.17;;
71104;SDS011;58760;48.716;8.962;2022-08-19T06:06:07;32.88;;;23.67;;
71104;SDS011;58760;48.716;8.962;2022-08-19T06:08:34;32.05;;;23.02;;
71104;SDS011;58760;48.716;8.962;2022-08-19T06:13:47;29.17;;;22.63;;
71104;SDS011;58760;48.716;8.962;2022-08-19T06:16:18;31.02;;;22.98;;
71104;SDS011;58760;48.716;8.962;2022-08-19T06:18:46;32.35;;;23.15;;
71104;SDS011;58760;48.716;8.962;2022-08-19T06:21:11;30.13;;;22.30;;
71104;SDS011;58760;48.716;8.962;2022-08-19T06:23:37;33.83;;;23.17;;
71104;SDS011;58760;48.716;8.962;2022-08-19T06:26:02;30.17;;;21.00;;
71104;SDS011;58760;48.716;8.962;2022-08-19T06:28:28;32.40;;;22.98;;
71104;SDS011;58760;48.716;8.962;2022-08-19T06:30:53;32.67;;;22.17;;
71104;SDS011;58760;48.716;8.962;2022-08-19T06:33:18;36.50;;;23.27;;
71104;SDS011;58760;48.716;8.962;2022-08-19T06:35:44;33.80;;;22.98;;
71104;SDS011;58760;48.716;8.962;2022-08-19T06:38:09;31.42;;;19.90;;
71104;SDS011;58760;48.716;8.962;2022-08-19T06:40:35;32.05;;;22.05;;
71104;SDS011;58760;48.716;8.962;2022-08-19T06:43:02;29.80;;;21.00;;
71104;SDS011;58760;48.716;8.962;2022-08-19T06:45:28;29.52;;;23.13;;
71104;SDS011;58760;48.716;8.962;2022-08-19T06:47:53;33.53;;;21.48;;
71104;SDS011;58760;48.716;8.962;2022-08-19T06:50:21;28.83;;;19.92;;
71104;SDS011;58760;48.716;8.962;2022-08-19T06:52:47;35.38;;;21.38;;
71104;SDS011;58760;48.716;8.962;2022-08-19T06:55:13;26.42;;;20.27;;
71104;SDS011;58760;48.716;8.962;2022-08-19T06:57:39;26.85;;;20.55;;
71104;SDS011;58760;48.716;8.962;2022-08-19T07:00:05;30.55;;;21.00;;
71104;SDS011;58760;48.716;8.962;2022-08-19T07:02:33;30.20;;;21.55;;
71104;SDS011;58760;48.716;8.962;2022-08-19T07:05:02;26.73;;;20.00;;
71104;SDS011;58760;48.716;8.962;2022-08-19T07:09:53;29.17;;;19.80;;
71104;SDS011;58760;48.716;8.962;2022-08-19T07:12:19;29.73;;;19.50;;
71104;SDS011;58760;48.716;8.962;2022-08-19T07:14:44;26.45;;;20.48;;
71104;SDS011;58760;48.716;8.962;2022-08-19T07:17:11;27.13;;;19.05;;
71104;SDS011;58760;48.716;8.962;2022-08-19T07:19:37;28.88;;;19.63;;
71104;SDS011;58760;48.716;8.962;2022-08-19T07:22:05;27.73;;;19.38;;
71104;SDS011;58760;48.716;8.962;2022-08-19T07:24:31;28.15;;;19.92;;
71104;SDS011;58760;48.716;8.962;2022-08-19T07:26:58;27.55;;;19.02;;
71104;SDS011;58760;48.716;8.962;2022-08-19T07:29:31;25.20;;;18.48;;
71104;SDS011;58760;48.716;8.962;2022-08-19T07:31:58;25.95;;;18.65;;
71104;SDS011;58760;48.716;8.962;2022-08-19T07:34:25;28.25;;;19.13;;
71104;SDS011;58760;48.716;8.962;2022-08-19T07:36:52;24.02;;;18.08;;
71104;SDS011;58760;48.716;8.962;2022-08-19T07:39:23;30.63;;;19.70;;
71104;SDS011;58760;48.716;8.962;2022-08-19T07:41:53;27.95;;;18.95;;
71104;SDS011;58760;48.716;8.962;2022-08-19T07:44:20;25.50;;;19.23;;
71104;SDS011;58760;48.716;8.962;2022-08-19T07:46:47;29.15;;;20.00;;
71104;SDS011;58760;48.716;8.962;2022-08-19T07:49:14;25.50;;;19.35;;
71104;SDS011;58760;48.716;8.962;2022-08-19T07:51:48;34.15;;;18.02;;
71104;SDS011;58760;48.716;8.962;2022-08-19T07:54:19;28.08;;;18.83;;
71104;SDS011;58760;48.716;8.962;2022-08-19T07:56:45;26.67;;;17.95;;
71104;SDS011;58760;48.716;8.962;2022-08-19T07:59:11;29.88;;;18.05;;
71104;SDS011;58760;48.716;8.962;2022-08-19T08:01:36;23.67;;;19.00;;
71104;SDS011;58760;48.716;8.962;2022-08-19T08:04:04;24.42;;;16.67;;
71104;SDS011;58760;48.716;8.962;2022-08-19T08:06:49;28.27;;;18.30;;
71104;SDS011;58760;48.716;8.962;2022-08-19T08:09:34;23.20;;;17.25;;
71104;SDS011;58760;48.716;8.962;2022-08-19T08:13:03;22.67;;;17.10;;
71104;SDS011;58760;48.716;8.962;2022-08-19T08:15:10;26.20;;;17.67;;
71104;SDS011;58760;48.716;8.962;2022-08-19T08:17:43;23.75;;;16.60;;
71104;SDS011;58760;48.716;8.962;2022-08-19T08:20:10;28.40;;;17.40;;
71104;SDS011;58760;48.716;8.962;2022-08-19T08:22:36;23.20;;;16.75;;
71104;SDS011;58760;48.716;8.962;2022-08-19T08:25:23;22.98;;;15.60;;
71104;SDS011;58760;48.716;8.962;2022-08-19T08:27:49;21.88;;;15.93;;
71104;SDS011;58760;48.716;8.962;2022-08-19T08:30:22;24.58;;;16.02;;
71104;SDS011;58760;48.716;8.962;2022-08-19T08:32:49;25.67;;;16.55;;
71104;SDS011;58760;48.716;8.962;2022-08-19T08:35:17;22.33;;;15.73;;
71104;SDS011;58760;48.716;8.962;2022-08-19T08:37:45;21.40;;;16.17;;
71104;SDS011;58760;48.716;8.962;2022-08-19T08:42:52;20.42;;;15.35;;
71104;SDS011;58760;48.716;8.962;2022-08-19T08:45:27;21.80;;;16.08;;
71104;SDS011;58760;48.716;8.962;2022-08-19T08:47:54;19.55;;;15.77;;
71104;SDS011;58760;48.716;8.962;2022-08-19T08:50:27;24.10;;;16.17;;
71104;SDS011;58760;48.716;8.962;2022-08-19T08:53:00;21.88;;;16.17;;
71104;SDS011;58760;48.716;8.962;2022-08-19T08:55:28;22.85;;;15.88;;
71104;SDS011;58760;48.716;8.962;2022-08-19T08:57:56;22.92;;;15.88;;
71104;SDS011;58760;48.716;8.962;2022-08-19T09:00:29;23.55;;;16.90;;
71104;SDS011;58760;48.716;8.962;2022-08-19T09:02:57;21.55;;;15.95;;
71104;SDS011;58760;48.716;8.962;2022-08-19T09:05:26;19.65;;;15.40;;
71104;SDS011;58760;48.716;8.962;2022-08-19T09:08:04;21.33;;;15.40;;
71104;SDS011;58760;48.716;8.962;2022-08-19T09:15:40;19.13;;;15.13;;
71104;SDS011;58760;48.716;8.962;2022-08-19T09:18:10;24.15;;;15.48;;
71104;SDS011;58760;48.716;8.962;2022-08-19T09:20:36;21.92;;;15.73;;
71104;SDS011;58760;48.716;8.962;2022-08-19T09:23:01;26.20;;;16.05;;
71104;SDS011;58760;48.716;8.962;2022-08-19T09:25:27;18.08;;;14.82;;
71104;SDS011;58760;48.716;8.962;2022-08-19T09:30:20;20.65;;;15.25;;
71104;SDS011;58760;48.716;8.962;2022-08-19T09:32:51;18.05;;;12.90;;
71104;SDS011;58760;48.716;8.962;2022-08-19T09:35:20;18.50;;;14.30;;
71104;SDS011;58760;48.716;8.962;2022-08-19T09:37:48;21.17;;;14.80;;
71104;SDS011;58760;48.716;8.962;2022-08-19T09:40:15;26.70;;;15.23;;
71104;SDS011;58760;48.716;8.962;2022-08-19T09:42:41;20.08;;;14.38;;
71104;SDS011;58760;48.716;8.962;2022-08-19T09:45:11;19.65;;;13.90;;
71104;SDS011;58760;48.716;8.962;2022-08-19T09:47:38;20.75;;;14.65;;
71104;SDS011;58760;48.716;8.962;2022-08-19T09:50:05;19.83;;;14.10;;
71104;SDS011;58760;48.716;8.962;2022-08-19T09:52:32;18.25;;;14.27;;
71104;SDS011;58760;48.716;8.962;2022-08-19T09:54:57;24.02;;;15.02;;
71104;SDS011;58760;48.716;8.962;2022-08-19T09:57:23;21.63;;;14.32;;
71104;SDS011;58760;48.716;8.962;2022-08-19T09:59:48;20.27;;;14.95;;
71104;SDS011;58760;48.716;8.962;2022-08-19T10:02:13;21.60;;;15.40;;
71104;SDS011;58760;48.716;8.962;2022-08-19T10:04:39;20.23;;;13.57;;
71104;SDS011;58760;48.716;8.962;2022-08-19T10:07:23;19.70;;;14.00;;
71104;SDS011;58760;48.716;8.962;2022-08-19T10:12:14;23.20;;;13.65;;
71104;SDS011;58760;48.716;8.962;2022-08-19T10:17:05;17.90;;;12.85;;
71104;SDS011;58760;48.716;8.962;2022-08-19T10:19:31;18.42;;;10.48;;
71104;SDS011;58760;48.716;8.962;2022-08-19T10:22:07;18.13;;;11.07;;
71104;SDS011;58760;48.716;8.962;2022-08-19T10:24:33;20.42;;;11.07;;
71104;SDS011;58760;48.716;8.962;2022-08-19T10:26:59;17.13;;;11.00;;
71104;SDS011;58760;48.716;8.962;2022-08-19T10:29:28;16.08;;;10.43;;
71104;SDS011;58760;48.716;8.962;2022-08-19T10:31:55;16.10;;;9.93;;
71104;SDS011;58760;48.716;8.962;2022-08-19T10:34:21;14.32;;;8.95;;
71104;SDS011;58760;48.716;8.962;2022-08-19T10:36:47;14.65;;;9.02;;
71104;SDS011;58760;48.716;8.962;2022-08-19T10:41:38;12.55;;;8.18;;
71104;SDS011;58760;48.716;8.962;2022-08-19T10:44:05;13.32;;;7.97;;
71104;SDS011;58760;48.716;8.962;2022-08-19T10:46:34;14.77;;;8.13;;
71104;SDS011;58760;48.716;8.962;2022-08-19T10:49:03;11.88;;;7.32;;
71104;SDS011;58760;48.716;8.962;2022-08-19T10:51:31;12.35;;;9.00;;
71104;SDS011;58760;48.716;8.962;2022-08-19T10:54:15;13.10;;;8.63;;
71104;SDS011;58760;48.716;8.962;2022-08-19T10:56:41;11.88;;;8.45;;
71104;SDS011;58760;48.716;8.962;2022-08-19T10:59:21;15.05;;;9.35;;
71104;SDS011;58760;48.716;8.962;2022-08-19T11:01:59;18.10;;;10.00;;
71104;SDS011;58760;48.716;8.962;2022-08-19T11:04:25;16.73;;;10.32;;
71104;SDS011;58760;48.716;8.962;2022-08-19T11:06:51;14.70;;;10.70;;
71104;SDS011;58760;48.716;8.962;2022-08-19T11:11:44;13.73;;;8.98;;
71104;SDS011;58760;48.716;8.962;2022-08-19T11:14:13;16.70;;;9.88;;
71104;SDS011;58760;48.716;8.962;2022-08-19T11:16:46;14.73;;;9.18;;
71104;SDS011;58760;48.716;8.962;2022-08-19T11:19:16;13.90;;;8.25;;
71104;SDS011;58760;48.716;8.962;2022-08-19T11:21:44;14.82;;;8.65;;
71104;SDS011;58760;48.716;8.962;2022-08-19T11:24:13;14.45;;;8.73;;
71104;SDS011;58760;48.716;8.962;2022-08-19T11:26:43;13.13;;;7.72;;
71104;SDS011;58760;48.716;8.962;2022-08-19T11:29:10;14.18;;;8.20;;
71104;SDS011;58760;48.716;8.962;2022-08-19T11:31:38;13.60;;;8.60;;
71104;SDS011;58760;48.716;8.962;2022-08-19T11:34:07;12.40;;;7.35;;
71104;SDS011;58760;48.716;8.962;2022-08-19T11:36:37;14.95;;;8.05;;
71104;SDS011;58760;48.716;8.962;2022-08-19T11:39:06;14.43;;;7.97;;
71104;SDS011;58760;48.716;8.962;2022-08-19T11:41:32;13.98;;;8.05;;
71104;SDS011;58760;48.716;8.962;2022-08-19T11:43:58;15.32;;;7.85;;
71104;SDS011;58760;48.716;8.962;2022-08-19T11:48:50;16.15;;;8.15;;
71104;SDS011;58760;48.716;8.962;2022-08-19T11:51:17;12.63;;;8.82;;
71104;SDS011;58760;48.716;8.962;2022-08-19T11:53:49;12.95;;;8.23;;
71104;SDS011;58760;48.716;8.962;2022-08-19T11:58:41;15.40;;;6.93;;
71104;SDS011;58760;48.716;8.962;2022-08-19T12:01:09;12.80;;;5.75;;
71104;SDS011;58760;48.716;8.962;2022-08-19T12:03:41;15.23;;;7.20;;
71104;SDS011;58760;48.716;8.962;2022-08-19T12:08:37;10.15;;;5.93;;
71104;SDS011;58760;48.716;8.962;2022-08-19T12:11:03;15.27;;;6.90;;
71104;SDS011;58760;48.716;8.962;2022-08-19T12:15:55;11.35;;;6.55;;
71104;SDS011;58760;48.716;8.962;2022-08-19T12:18:21;18.00;;;6.43;;
71104;SDS011;58760;48.716;8.962;2022-08-19T12:20:47;9.85;;;6.00;;
71104;SDS011;58760;48.716;8.962;2022-08-19T12:23:16;12.20;;;5.45;;
71104;SDS011;58760;48.716;8.962;2022-08-19T12:28:15;9.45;;;4.82;;
71104;SDS011;58760;48.716;8.962;2022-08-19T12:30:41;8.57;;;4.78;;
71104;SDS011;58760;48.716;8.962;2022-08-19T12:35:32;7.68;;;4.40;;
71104;SDS011;58760;48.716;8.962;2022-08-19T12:37:58;7.38;;;4.70;;
71104;SDS011;58760;48.716;8.962;2022-08-19T12:42:49;9.10;;;4.63;;
71104;SDS011;58760;48.716;8.962;2022-08-19T12:45:16;12.98;;;5.43;;
71104;SDS011;58760;48.716;8.962;2022-08-19T12:50:06;8.13;;;5.03;;
71104;SDS011;58760;48.716;8.962;2022-08-19T12:52:34;8.13;;;4.63;;
71104;SDS011;58760;48.716;8.962;2022-08-19T12:55:02;12.52;;;5.32;;
71104;SDS011;58760;48.716;8.962;2022-08-19T12:57:29;9.50;;;5.75;;
71104;SDS011;58760;48.716;8.962;2022-08-19T12:59:56;9.50;;;5.13;;
71104;SDS011;58760;48.716;8.962;2022-08-19T13:02:21;13.05;;;4.70;;
71104;SDS011;58760;48.716;8.962;2022-08-19T13:04:47;11.45;;;4.80;;
71104;SDS011;58760;48.716;8.962;2022-08-19T13:07:13;8.10;;;4.20;;
71104;SDS011;58760;48.716;8.962;2022-08-19T13:09:38;8.65;;;5.03;;
71104;SDS011;58760;48.716;8.962;2022-08-19T13:12:07;9.93;;;4.63;;
71104;SDS011;58760;48.716;8.962;2022-08-19T13:14:37;8.00;;;3.92;;
71104;SDS011;58760;48.716;8.962;2022-08-19T13:17:05;7.75;;;4.47;;
71104;SDS011;58760;48.716;8.962;2022-08-19T13:19:30;7.18;;;4.28;;
71104;SDS011;58760;48.716;8.962;2022-08-19T13:21:56;7.88;;;4.72;;
71104;SDS011;58760;48.716;8.962;2022-08-19T13:24:22;13.60;;;7.80;;
71104;SDS011;58760;48.716;8.962;2022-08-19T13:26:48;12.45;;;5.28;;
71104;SDS011;58760;48.716;8.962;2022-08-19T13:29:13;7.65;;;4.78;;
71104;SDS011;58760;48.716;8.962;2022-08-19T13:31:57;11.45;;;5.00;;
71104;SDS011;58760;48.716;8.962;2022-08-19T13:34:41;9.43;;;5.85;;
71104;SDS011;58760;48.716;8.962;2022-08-19T13:37:07;7.82;;;5.93;;
71104;SDS011;58760;48.716;8.962;2022-08-19T13:39:33;9.35;;;5.68;;
71104;SDS011;58760;48.716;8.962;2022-08-19T13:41:59;10.95;;;5.22;;
71104;SDS011;58760;48.716;8.962;2022-08-19T13:44:26;13.50;;;6.68;;
71104;SDS011;58760;48.716;8.962;2022-08-19T13:46:54;9.75;;;6.28;;
71104;SDS011;58760;48.716;8.962;2022-08-19T13:49:25;9.63;;;6.10;;
71104;SDS011;58760;48.716;8.962;2022-08-19T13:51:52;12.20;;;5.88;;
71104;SDS011;58760;48.716;8.962;2022-08-19T13:54:17;10.25;;;5.50;;
71104;SDS011;58760;48.716;8.962;2022-08-19T13:56:44;11.30;;;6.07;;
71104;SDS011;58760;48.716;8.962;2022-08-19T13:59:10;11.77;;;6.15;;
71104;SDS011;58760;48.716;8.962;2022-08-19T14:04:02;9.38;;;6.22;;
71104;SDS011;58760;48.716;8.962;2022-08-19T14:06:28;9.98;;;6.10;;
71104;SDS011;58760;48.716;8.962;2022-08-19T14:08:53;9.63;;;5.90;;
71104;SDS011;58760;48.716;8.962;2022-08-19T14:11:19;8.82;;;6.28;;
71104;SDS011;58760;48.716;8.962;2022-08-19T14:13:44;11.45;;;5.72;;
71104;SDS011;58760;48.716;8.962;2022-08-19T14:16:10;9.82;;;6.15;;
71104;SDS011;58760;48.716;8.962;2022-08-19T14:18:37;7.65;;;6.18;;
71104;SDS011;58760;48.716;8.962;2022-08-19T14:21:03;10.52;;;5.20;;
71104;SDS011;58760;48.716;8.962;2022-08-19T14:23:30;9.30;;;6.25;;
71104;SDS011;58760;48.716;8.962;2022-08-19T14:26:09;10.68;;;5.82;;
71104;SDS011;58760;48.716;8.962;2022-08-19T14:28:38;12.25;;;5.57;;
71104;SDS011;58760;48.716;8.962;2022-08-19T14:31:07;8.82;;;5.30;;
71104;SDS011;58760;48.716;8.962;2022-08-19T14:33:36;10.35;;;6.05;;
71104;SDS011;58760;48.716;8.962;2022-08-19T14:38:27;10.00;;;6.25;;
71104;SDS011;58760;48.716;8.962;2022-08-19T14:40:56;9.02;;;5.78;;
71104;SDS011;58760;48.716;8.962;2022-08-19T14:43:30;8.02;;;5.32;;
71104;SDS011;58760;48.716;8.962;2022-08-19T14:45:56;8.52;;;5.88;;
71104;SDS011;58760;48.716;8.962;2022-08-19T14:50:47;12.67;;;6.87;;
71104;SDS011;58760;48.716;8.962;2022-08-19T14:55:40;7.95;;;5.28;;
71104;SDS011;58760;48.716;8.962;2022-08-19T14:58:06;6.88;;;4.95;;
71104;SDS011;58760;48.716;8.962;2022-08-19T15:00:33;7.15;;;5.43;;
71104;SDS011;58760;48.716;8.962;2022-08-19T15:05:24;8.73;;;5.45;;
71104;SDS011;58760;48.716;8.962;2022-08-19T15:07:52;15.77;;;6.28;;
71104;SDS011;58760;48.716;8.962;2022-08-19T15:10:19;8.60;;;5.13;;
71104;SDS011;58760;48.716;8.962;2022-08-19T15:12:46;10.35;;;4.88;;
71104;SDS011;58760;48.716;8.962;2022-08-19T15:15:13;7.38;;;5.22;;
71104;SDS011;58760;48.716;8.962;2022-08-19T15:17:43;8.85;;;4.80;;
71104;SDS011;58760;48.716;8.962;2022-08-19T15:20:10;9.40;;;5.43;;
71104;SDS011;58760;48.716;8.962;2022-08-19T15:22:37;10.80;;;5.20;;
71104;SDS011;58760;48.716;8.962;2022-08-19T15:25:06;8.65;;;5.07;;
71104;SDS011;58760;48.716;8.962;2022-08-19T15:27:33;7.00;;;4.72;;
71104;SDS011;58760;48.716;8.962;2022-08-19T15:29:59;11.20;;;5.28;;